Time;durP1;ratioP1;P1;durP2;ratioP2;P2;SDS_P1;SDS_P2;PMS_P1;PMS_P2;Temp;Humidity;BMP_temperature;BMP_pressure;BME280_temperature;BME280_humidity;BME280_pressure;Samples;Min_cycle;Max_cycle;Signal;HPM_P1;HPM_P2
2021/10/06 00:01:21;;;;;;;7.83;5.37;;;13.70;79.70;;;;;;5070713;28;20288;-67
2021/10/06 00:03:47;;;;;;;12.90;6.43;;;13.70;80.10;;;;;;5070485;28;20556;-66
2021/10/06 00:06:14;;;;;;;10.77;5.93;;;13.70;80.30;;;;;;5071141;28;20227;-66
2021/10/06 00:08:41;;;;;;;13.53;6.20;;;13.70;80.40;;;;;;5071387;28;20589;-66
2021/10/06 00:11:08;;;;;;;8.67;5.47;;;13.60;80.50;;;;;;5070482;28;20229;-66
2021/10/06 00:13:35;;;;;;;12.10;5.50;;;13.60;80.70;;;;;;5071541;28;20289;-65
2021/10/06 00:16:04;;;;;;;14.13;5.77;;;13.60;80.80;;;;;;5071289;28;20472;-67
2021/10/06 00:18:31;;;;;;;11.60;5.60;;;13.60;81.00;;;;;;5070629;28;20292;-67
2021/10/06 00:20:58;;;;;;;10.10;6.13;;;13.60;81.10;;;;;;5070501;28;20209;-65
2021/10/06 00:23:25;;;;;;;11.90;5.83;;;13.50;81.20;;;;;;5070954;28;20205;-67
2021/10/06 00:25:51;;;;;;;12.63;5.87;;;13.60;81.50;;;;;;5071649;28;20209;-66
2021/10/06 00:28:18;;;;;;;8.73;5.57;;;13.60;81.60;;;;;;5074315;28;20212;-68
2021/10/06 00:30:45;;;;;;;15.83;6.27;;;13.60;81.90;;;;;;5074742;28;20583;-65
2021/10/06 00:33:13;;;;;;;13.23;6.00;;;13.50;81.90;;;;;;5074899;28;20733;-67
2021/10/06 00:35:40;;;;;;;8.13;5.83;;;13.50;81.90;;;;;;5074212;28;20224;-66
2021/10/06 00:38:07;;;;;;;13.60;5.87;;;13.50;82.00;;;;;;5074543;28;20217;-66
2021/10/06 00:40:34;;;;;;;15.23;6.20;;;13.50;82.20;;;;;;5074480;28;20216;-66
2021/10/06 00:43:01;;;;;;;11.30;5.90;;;13.50;82.20;;;;;;5075026;28;20213;-67
2021/10/06 00:45:28;;;;;;;10.20;6.00;;;13.50;82.30;;;;;;5074482;28;20207;-67
2021/10/06 00:47:55;;;;;;;9.67;5.30;;;13.50;82.50;;;;;;5074127;28;20201;-67
2021/10/06 00:50:23;;;;;;;11.43;5.70;;;13.50;82.50;;;;;;5073891;28;20205;-66
2021/10/06 00:52:50;;;;;;;13.33;5.30;;;13.50;82.60;;;;;;5074384;28;20588;-67
2021/10/06 00:55:17;;;;;;;9.90;6.33;;;13.50;82.60;;;;;;5074416;28;20608;-67
2021/10/06 00:57:44;;;;;;;8.97;5.73;;;13.50;82.80;;;;;;5074404;28;20292;-67
2021/10/06 01:00:12;;;;;;;8.97;6.23;;;13.50;82.80;;;;;;5073364;28;20240;-67
2021/10/06 01:02:39;;;;;;;14.60;6.13;;;13.50;82.90;;;;;;5073104;28;20206;-67
2021/10/06 01:05:08;;;;;;;7.90;5.33;;;13.50;83.10;;;;;;5074141;28;20212;-68
2021/10/06 01:07:37;;;;;;;10.90;6.30;;;13.50;83.10;;;;;;5073934;28;20672;-67
2021/10/06 01:10:05;;;;;;;9.00;5.80;;;13.50;83.30;;;;;;5060345;28;20205;-68
2021/10/06 01:12:32;;;;;;;14.10;5.87;;;13.50;83.30;;;;;;5074176;28;20240;-66
2021/10/06 01:15:00;;;;;;;9.23;5.33;;;13.50;83.40;;;;;;5073757;28;20205;-68
2021/10/06 01:17:27;;;;;;;13.13;6.27;;;13.50;84.10;;;;;;5073419;28;20201;-69
2021/10/06 01:19:53;;;;;;;10.30;5.67;;;13.50;83.40;;;;;;5073162;28;20202;-67
2021/10/06 01:22:22;;;;;;;8.30;5.37;;;13.50;83.30;;;;;;5073741;28;20201;-67
2021/10/06 01:24:48;;;;;;;10.50;6.33;;;13.60;83.40;;;;;;5073229;28;20217;-67
2021/10/06 01:27:15;;;;;;;9.63;5.47;;;13.60;83.30;;;;;;5073789;28;20209;-67
2021/10/06 01:29:42;;;;;;;15.67;6.33;;;13.60;83.40;;;;;;5067377;28;20448;-67
2021/10/06 01:32:13;;;;;;;12.43;6.23;;;13.60;83.50;;;;;;5073085;28;20225;-66
2021/10/06 01:34:41;;;;;;;14.50;6.27;;;13.60;83.60;;;;;;5072668;28;20248;-67
2021/10/06 01:37:08;;;;;;;8.53;5.67;;;13.60;83.50;;;;;;5072478;28;20236;-67
2021/10/06 01:39:36;;;;;;;12.10;6.17;;;13.60;83.50;;;;;;5072825;28;20209;-66
2021/10/06 01:42:03;;;;;;;10.07;5.97;;;13.60;83.40;;;;;;5072713;28;20236;-67
2021/10/06 01:44:30;;;;;;;11.77;6.00;;;13.60;83.60;;;;;;5062405;28;20677;-68
2021/10/06 01:46:57;;;;;;;10.53;5.43;;;13.60;83.60;;;;;;5072717;28;20255;-67
2021/10/06 01:49:24;;;;;;;12.13;5.70;;;13.60;83.50;;;;;;5073051;28;20280;-66
2021/10/06 01:51:52;;;;;;;13.03;6.27;;;13.60;83.40;;;;;;5072639;28;20225;-67
2021/10/06 01:54:19;;;;;;;10.07;6.03;;;13.60;83.40;;;;;;5073125;28;20624;-66
2021/10/06 01:56:47;;;;;;;12.87;6.30;;;13.60;83.30;;;;;;5072794;28;20205;-67
2021/10/06 01:59:14;;;;;;;13.57;6.23;;;13.60;83.50;;;;;;5072804;28;20220;-68
2021/10/06 02:01:41;;;;;;;9.50;6.50;;;13.70;83.40;;;;;;5072829;28;20212;-67
2021/10/06 02:04:08;;;;;;;10.57;5.70;;;13.60;83.30;;;;;;5072636;28;20216;-67
2021/10/06 02:06:35;;;;;;;8.97;5.53;;;13.60;83.40;;;;;;5072879;28;20553;-67
2021/10/06 02:09:01;;;;;;;9.53;5.67;;;13.60;83.60;;;;;;5073022;28;20205;-66
2021/10/06 02:11:28;;;;;;;10.60;5.83;;;13.60;83.60;;;;;;5073033;28;20201;-65
2021/10/06 02:13:56;;;;;;;13.03;6.23;;;13.70;83.70;;;;;;5072540;28;20209;-67
2021/10/06 02:16:23;;;;;;;9.40;5.77;;;13.70;83.70;;;;;;5072509;28;20209;-67
2021/10/06 02:18:50;;;;;;;13.60;5.80;;;13.60;83.60;;;;;;5072760;28;20205;-66
2021/10/06 02:21:17;;;;;;;16.03;6.00;;;13.70;83.70;;;;;;5071869;28;20209;-66
2021/10/06 02:23:44;;;;;;;10.27;5.80;;;13.60;83.60;;;;;;5072620;28;20596;-67
2021/10/06 02:26:10;;;;;;;10.27;5.73;;;13.70;83.80;;;;;;5072044;28;20219;-67
2021/10/06 02:28:37;;;;;;;12.17;5.80;;;13.60;83.90;;;;;;5071998;28;20631;-66
2021/10/06 02:31:05;;;;;;;13.43;6.07;;;13.60;83.90;;;;;;5072694;28;20206;-67
2021/10/06 02:33:32;;;;;;;9.00;5.97;;;13.60;83.90;;;;;;5071838;28;20669;-66
2021/10/06 02:36:14;;;;;;;11.63;6.77;;;13.60;84.00;;;;;;5090315;27;20623;-67
2021/10/06 02:38:41;;;;;;;9.70;5.87;;;13.60;84.00;;;;;;5070789;28;20201;-67
2021/10/06 02:41:08;;;;;;;8.90;5.87;;;13.60;84.10;;;;;;5069552;28;20209;-68
2021/10/06 02:43:35;;;;;;;13.90;6.00;;;13.60;84.10;;;;;;5070020;28;20706;-67
2021/10/06 02:46:02;;;;;;;9.53;6.10;;;13.50;84.10;;;;;;5069501;28;20604;-67
2021/10/06 02:48:29;;;;;;;10.37;5.53;;;13.50;84.10;;;;;;5069197;28;20212;-66
2021/10/06 02:50:55;;;;;;;12.17;6.30;;;13.60;84.20;;;;;;5072241;28;20218;-66
2021/10/06 02:53:24;;;;;;;12.10;6.40;;;13.50;84.00;;;;;;5080309;28;20700;-68
2021/10/06 02:55:50;;;;;;;9.43;6.00;;;13.50;84.10;;;;;;5067946;28;20225;-67
2021/10/06 02:58:17;;;;;;;13.70;6.57;;;13.50;84.20;;;;;;5068804;28;20209;-68
2021/10/06 03:00:44;;;;;;;11.60;6.03;;;13.50;84.20;;;;;;5069329;28;20202;-66
2021/10/06 03:03:11;;;;;;;12.87;6.00;;;13.50;84.20;;;;;;5068661;28;20725;-67
2021/10/06 03:05:38;;;;;;;11.97;5.83;;;13.50;84.30;;;;;;5068743;28;20220;-66
2021/10/06 03:08:05;;;;;;;8.00;5.77;;;13.50;84.50;;;;;;5072593;28;20563;-67
2021/10/06 03:10:33;;;;;;;12.80;5.90;;;13.50;84.50;;;;;;5077833;28;20211;-66
2021/10/06 03:13:00;;;;;;;10.93;5.37;;;13.50;84.70;;;;;;5068624;28;20280;-66
2021/10/06 03:15:27;;;;;;;8.70;5.80;;;13.40;84.60;;;;;;5068670;28;20316;-67
2021/10/06 03:17:54;;;;;;;8.67;6.23;;;13.40;84.70;;;;;;5068651;28;20296;-67
2021/10/06 03:20:20;;;;;;;11.40;6.10;;;13.40;84.70;;;;;;5068969;28;20214;-67
2021/10/06 03:22:47;;;;;;;9.47;5.57;;;13.40;84.90;;;;;;5068724;28;20202;-67
2021/10/06 03:25:14;;;;;;;11.17;5.80;;;13.40;84.80;;;;;;5068358;28;20209;-67
2021/10/06 03:27:43;;;;;;;12.90;6.13;;;13.50;85.00;;;;;;5068439;28;20209;-68
2021/10/06 03:30:11;;;;;;;16.03;7.73;;;13.40;85.10;;;;;;5068317;28;20703;-68
2021/10/06 03:32:38;;;;;;;6.80;5.23;;;13.40;85.00;;;;;;5067961;28;20210;-67
2021/10/06 03:35:06;;;;;;;8.97;5.87;;;13.40;85.00;;;;;;5068929;28;20264;-68
2021/10/06 03:37:34;;;;;;;9.93;5.23;;;13.40;84.90;;;;;;5073589;28;20236;-67
2021/10/06 03:40:00;;;;;;;8.77;5.17;;;13.40;84.90;;;;;;5067783;28;20296;-68
2021/10/06 03:42:27;;;;;;;10.27;5.70;;;13.40;85.00;;;;;;5075475;28;20271;-67
2021/10/06 03:44:55;;;;;;;7.87;5.53;;;13.40;85.10;;;;;;5074711;28;20204;-67
2021/10/06 03:47:22;;;;;;;7.93;6.03;;;13.50;85.20;;;;;;5056023;28;20214;-67
2021/10/06 03:49:49;;;;;;;9.20;6.00;;;13.40;85.10;;;;;;5054735;28;20209;-67
2021/10/06 03:52:16;;;;;;;8.00;5.70;;;13.40;85.10;;;;;;5065347;28;20710;-68
2021/10/06 03:54:43;;;;;;;7.10;5.37;;;13.50;85.30;;;;;;5040876;28;20232;-67
2021/10/06 03:57:09;;;;;;;8.57;5.30;;;13.40;85.20;;;;;;5055378;28;20235;-68
2021/10/06 03:59:36;;;;;;;7.57;5.67;;;13.50;85.50;;;;;;5054665;28;20210;-67
2021/10/06 04:02:04;;;;;;;11.53;5.67;;;13.40;85.50;;;;;;5054712;28;20655;-67
2021/10/06 04:04:31;;;;;;;17.67;6.50;;;13.40;85.60;;;;;;5054755;28;20214;-67
2021/10/06 04:06:58;;;;;;;6.47;5.00;;;13.40;85.70;;;;;;5054268;28;20209;-67
2021/10/06 04:09:25;;;;;;;8.57;5.87;;;13.50;85.90;;;;;;5054547;28;20278;-68
2021/10/06 04:11:52;;;;;;;8.73;5.40;;;13.40;85.80;;;;;;5054213;28;20577;-67
2021/10/06 04:14:19;;;;;;;6.53;5.07;;;13.50;86.00;;;;;;5054236;28;20582;-68
2021/10/06 04:16:46;;;;;;;6.47;5.20;;;13.40;86.10;;;;;;5054235;28;20202;-67
2021/10/06 04:19:14;;;;;;;9.63;5.57;;;13.40;86.30;;;;;;5054649;28;20222;-67
2021/10/06 04:21:41;;;;;;;6.83;5.07;;;13.40;86.40;;;;;;5054170;28;20197;-67
2021/10/06 04:24:08;;;;;;;11.23;5.57;;;13.40;86.50;;;;;;5053992;28;20581;-66
2021/10/06 04:26:35;;;;;;;9.73;5.50;;;13.40;86.70;;;;;;5054341;28;20206;-67
2021/10/06 04:29:02;;;;;;;8.80;5.20;;;13.40;87.00;;;;;;5053439;28;20238;-68
2021/10/06 04:31:28;;;;;;;7.07;5.40;;;13.30;86.90;;;;;;5054287;28;20212;-68
2021/10/06 04:33:55;;;;;;;8.67;5.27;;;13.40;87.10;;;;;;5054543;28;20658;-68
2021/10/06 04:36:23;;;;;;;9.37;5.20;;;13.30;87.00;;;;;;5054972;28;20230;-68
2021/10/06 04:38:50;;;;;;;6.17;4.90;;;13.30;87.90;;;;;;5045877;28;20205;-67
2021/10/06 04:41:17;;;;;;;11.80;6.13;;;13.30;88.00;;;;;;5053669;28;20559;-68
2021/10/06 04:43:44;;;;;;;8.50;5.20;;;13.30;87.10;;;;;;5053720;28;20237;-67
2021/10/06 04:46:11;;;;;;;7.50;4.87;;;13.30;87.20;;;;;;5053609;28;20202;-69
2021/10/06 04:48:38;;;;;;;9.67;5.37;;;13.30;87.30;;;;;;5043006;28;20210;-67
2021/10/06 04:51:04;;;;;;;7.40;5.33;;;13.30;87.30;;;;;;5057735;28;20566;-68
2021/10/06 04:53:33;;;;;;;8.97;5.40;;;13.30;87.30;;;;;;5063305;28;20714;-67
2021/10/06 04:56:00;;;;;;;11.17;5.63;;;13.30;87.30;;;;;;5050018;28;20234;-68
2021/10/06 04:58:26;;;;;;;9.43;5.47;;;13.30;87.30;;;;;;5052217;28;21059;-67
2021/10/06 05:00:53;;;;;;;10.77;5.67;;;13.30;87.40;;;;;;5053626;28;20575;-67
2021/10/06 05:03:20;;;;;;;7.87;5.43;;;13.30;87.40;;;;;;5053872;28;20297;-67
2021/10/06 05:05:47;;;;;;;8.03;5.23;;;13.20;87.50;;;;;;5053621;28;20209;-67
2021/10/06 05:08:14;;;;;;;9.77;6.20;;;13.30;87.90;;;;;;5052490;28;20208;-68
2021/10/06 05:10:42;;;;;;;11.20;5.87;;;13.20;89.10;;;;;;5053057;28;20217;-67
2021/10/06 05:13:09;;;;;;;12.20;6.50;;;13.10;90.60;;;;;;5052907;28;20333;-68
2021/10/06 05:15:36;;;;;;;10.87;6.20;;;13.10;91.90;;;;;;5052045;28;20228;-68
2021/10/06 05:18:03;;;;;;;11.50;6.53;;;13.00;92.70;;;;;;5052855;28;20300;-67
2021/10/06 05:20:30;;;;;;;8.70;5.50;;;12.80;93.40;;;;;;5053305;28;20248;-67
2021/10/06 05:22:57;;;;;;;13.63;6.20;;;12.70;94.30;;;;;;5052668;28;20209;-68
2021/10/06 05:25:24;;;;;;;11.33;7.00;;;12.60;95.10;;;;;;5049387;28;20207;-67
2021/10/06 05:27:52;;;;;;;7.93;5.77;;;12.60;95.80;;;;;;5044294;28;20561;-67
2021/10/06 05:30:19;;;;;;;8.83;6.47;;;12.50;96.50;;;;;;5063843;28;20217;-66
2021/10/06 05:32:49;;;;;;;11.93;6.27;;;12.40;97.30;;;;;;5052828;28;20689;-67
2021/10/06 05:35:17;;;;;;;9.60;6.33;;;12.40;97.80;;;;;;5052919;28;20303;-67
2021/10/06 05:37:44;;;;;;;9.07;6.43;;;12.40;98.30;;;;;;5045039;28;20206;-67
2021/10/06 05:40:12;;;;;;;18.80;6.00;;;12.40;98.60;;;;;;5058531;28;20212;-72
2021/10/06 05:42:39;;;;;;;10.17;5.93;;;12.30;99.10;;;;;;5062270;28;20210;-71
2021/10/06 05:45:08;;;;;;;13.13;6.93;;;12.30;99.50;;;;;;5059187;28;20206;-72
2021/10/06 05:47:35;;;;;;;13.17;6.20;;;12.40;99.80;;;;;;5063311;28;20296;-73
2021/10/06 05:50:02;;;;;;;10.77;6.13;;;12.40;99.90;;;;;;5059372;28;20208;-73
2021/10/06 05:52:29;;;;;;;10.60;6.80;;;12.40;99.90;;;;;;5068775;28;20284;-73
2021/10/06 05:54:56;;;;;;;12.03;6.20;;;12.40;99.90;;;;;;5050731;28;20300;-74
2021/10/06 05:57:22;;;;;;;9.33;6.63;;;12.30;99.90;;;;;;5037786;28;20567;-74
2021/10/06 05:59:51;;;;;;;13.27;6.03;;;12.30;99.90;;;;;;5044654;28;20742;-73
2021/10/06 06:02:20;;;;;;;13.67;6.67;;;12.40;99.90;;;;;;5048168;28;20698;-73
2021/10/06 06:04:47;;;;;;;8.33;5.80;;;12.40;99.90;;;;;;5059181;28;20211;-74
2021/10/06 06:07:14;;;;;;;9.17;6.30;;;12.40;99.90;;;;;;5047954;28;20208;-74
2021/10/06 06:09:41;;;;;;;11.07;6.37;;;12.40;99.90;;;;;;5046637;28;20673;-72
2021/10/06 06:12:09;;;;;;;9.77;6.53;;;12.40;99.90;;;;;;5058267;28;20206;-71
2021/10/06 06:14:37;;;;;;;11.93;6.57;;;12.50;99.90;;;;;;5068536;28;20589;-73
2021/10/06 06:17:04;;;;;;;11.27;6.10;;;12.40;99.90;;;;;;5065685;28;20268;-73
2021/10/06 06:19:32;;;;;;;8.63;6.10;;;12.50;99.90;;;;;;5057023;28;20293;-74
2021/10/06 06:21:59;;;;;;;13.23;6.00;;;12.50;99.90;;;;;;5056836;28;20292;-72
2021/10/06 06:24:26;;;;;;;87.43;18.63;;;12.50;99.90;;;;;;5065770;28;20209;-72
2021/10/06 06:26:54;;;;;;;11.37;6.40;;;12.60;99.90;;;;;;5072167;28;20225;-73
2021/10/06 06:29:21;;;;;;;10.30;6.37;;;12.60;99.90;;;;;;5055175;28;20202;-71
2021/10/06 06:31:48;;;;;;;10.20;6.67;;;12.60;99.90;;;;;;5054431;28;20205;-71
2021/10/06 06:34:15;;;;;;;11.77;7.30;;;12.60;99.90;;;;;;5051400;28;20518;-71
2021/10/06 06:36:43;;;;;;;16.87;6.93;;;12.70;99.90;;;;;;5055820;28;20229;-71
2021/10/06 06:39:10;;;;;;;16.03;6.63;;;12.70;99.90;;;;;;5052532;28;20658;-72
2021/10/06 06:41:37;;;;;;;9.73;7.23;;;12.70;99.90;;;;;;5052445;28;20202;-72
2021/10/06 06:44:04;;;;;;;9.63;6.50;;;12.70;99.90;;;;;;5052027;28;20197;-69
2021/10/06 06:46:31;;;;;;;14.13;7.13;;;12.70;99.90;;;;;;5052760;28;20208;-70
2021/10/06 06:48:58;;;;;;;11.50;6.53;;;12.80;99.90;;;;;;5051133;28;20639;-69
2021/10/06 06:51:25;;;;;;;12.67;6.73;;;12.80;99.90;;;;;;5053709;28;20197;-70
2021/10/06 06:53:55;;;;;;;14.13;6.70;;;12.80;99.90;;;;;;5052489;28;20301;-69
2021/10/06 06:56:22;;;;;;;15.33;6.50;;;12.90;99.90;;;;;;5052036;28;20718;-70
2021/10/06 06:58:50;;;;;;;9.43;5.87;;;12.90;99.90;;;;;;5053024;28;20210;-69
2021/10/06 07:01:17;;;;;;;12.23;6.17;;;13.00;99.90;;;;;;5052808;28;20206;-69
2021/10/06 07:03:44;;;;;;;10.27;6.30;;;13.10;99.90;;;;;;5052768;28;20208;-69
2021/10/06 07:06:11;;;;;;;8.87;5.80;;;13.20;99.90;;;;;;5052422;28;20202;-71
2021/10/06 07:08:37;;;;;;;10.03;6.33;;;13.40;99.90;;;;;;5052353;28;20213;-71
2021/10/06 07:11:06;;;;;;;11.70;5.90;;;13.70;99.90;;;;;;5051996;28;20214;-72
2021/10/06 07:13:32;;;;;;;9.53;6.57;;;13.90;99.60;;;;;;5051708;28;20229;-71
2021/10/06 07:15:59;;;;;;;16.03;6.37;;;14.10;99.10;;;;;;5053460;28;20308;-71
2021/10/06 07:18:29;;;;;;;12.77;6.60;;;14.30;98.40;;;;;;5055471;28;20202;-72
2021/10/06 07:20:56;;;;;;;11.87;6.07;;;14.30;97.70;;;;;;5053497;28;20202;-71
2021/10/06 07:23:23;;;;;;;13.23;6.43;;;14.40;97.70;;;;;;5056597;28;20209;-70
2021/10/06 07:25:50;;;;;;;11.53;5.83;;;14.40;97.60;;;;;;5057317;28;20234;-71
2021/10/06 07:28:18;;;;;;;12.90;7.10;;;14.50;97.40;;;;;;5053521;28;20218;-72
2021/10/06 07:30:45;;;;;;;11.80;6.90;;;14.60;97.10;;;;;;5055365;28;20215;-71
2021/10/06 07:33:12;;;;;;;10.43;6.10;;;14.70;96.80;;;;;;5055839;28;20665;-70
2021/10/06 07:35:40;;;;;;;13.17;6.20;;;14.70;96.60;;;;;;5054950;28;20732;-71
2021/10/06 07:38:07;;;;;;;11.33;5.87;;;14.80;96.50;;;;;;5052631;28;20206;-71
2021/10/06 07:40:34;;;;;;;9.73;6.20;;;14.80;95.90;;;;;;5055785;28;20213;-70
2021/10/06 07:43:01;;;;;;;9.47;6.27;;;14.80;95.80;;;;;;5054464;28;20214;-70
2021/10/06 07:45:29;;;;;;;10.20;6.43;;;14.90;95.90;;;;;;5055250;28;20202;-71
2021/10/06 07:47:56;;;;;;;8.63;5.37;;;14.90;95.60;;;;;;5055534;28;20202;-70
2021/10/06 07:50:23;;;;;;;9.13;5.47;;;14.90;95.50;;;;;;5053654;28;20233;-69
2021/10/06 07:52:50;;;;;;;10.17;5.70;;;14.90;95.30;;;;;;5059443;28;20205;-72
2021/10/06 07:55:17;;;;;;;7.47;5.77;;;14.90;95.10;;;;;;5054577;28;20541;-70
2021/10/06 07:57:44;;;;;;;8.67;5.20;;;15.00;95.20;;;;;;5054899;28;20222;-70
2021/10/06 08:00:12;;;;;;;10.53;6.20;;;15.10;94.90;;;;;;5054507;28;20224;-72
2021/10/06 08:02:41;;;;;;;9.10;5.53;;;15.20;94.50;;;;;;5052722;28;20749;-71
2021/10/06 08:05:08;;;;;;;12.00;5.80;;;15.30;94.60;;;;;;5055538;28;20574;-72
2021/10/06 08:07:35;;;;;;;8.70;6.13;;;15.30;94.40;;;;;;5056327;28;20212;-72
2021/10/06 08:10:02;;;;;;;8.30;5.43;;;15.40;94.00;;;;;;5056196;28;20206;-70
2021/10/06 08:12:29;;;;;;;6.17;5.37;;;15.50;93.70;;;;;;5055807;28;20215;-70
2021/10/06 08:14:56;;;;;;;6.37;5.23;;;15.60;93.40;;;;;;5055376;28;20212;-70
2021/10/06 08:17:23;;;;;;;8.30;5.73;;;15.70;93.30;;;;;;5053860;28;20646;-73
2021/10/06 08:19:51;;;;;;;10.00;5.23;;;15.90;93.30;;;;;;5059132;28;20565;-70
2021/10/06 08:22:19;;;;;;;9.00;5.10;;;16.00;93.00;;;;;;5061565;28;20665;-70
2021/10/06 08:24:46;;;;;;;9.10;5.67;;;16.20;92.50;;;;;;5066719;28;20561;-71
2021/10/06 08:27:13;;;;;;;11.80;5.53;;;16.40;92.00;;;;;;5062297;28;20216;-71
2021/10/06 08:29:41;;;;;;;7.67;5.50;;;16.40;91.60;;;;;;5063141;28;20198;-71
2021/10/06 08:32:08;;;;;;;7.33;5.87;;;16.40;91.40;;;;;;5060297;28;20212;-70
2021/10/06 08:34:35;;;;;;;8.83;5.83;;;16.40;91.20;;;;;;5058151;28;20226;-71
2021/10/06 08:37:03;;;;;;;7.17;5.40;;;16.40;90.80;;;;;;5058572;28;20228;-71
2021/10/06 08:39:30;;;;;;;9.80;5.30;;;16.40;90.70;;;;;;5062060;28;20211;-71
2021/10/06 08:41:57;;;;;;;9.33;5.60;;;16.60;91.00;;;;;;5061076;28;20678;-72
2021/10/06 08:44:26;;;;;;;7.77;5.20;;;16.70;90.40;;;;;;5066492;28;20209;-70
2021/10/06 08:46:54;;;;;;;7.93;5.27;;;16.70;90.30;;;;;;5052675;28;20202;-72
2021/10/06 08:49:22;;;;;;;7.93;4.77;;;16.70;90.10;;;;;;5065344;28;20232;-72
2021/10/06 08:51:49;;;;;;;13.53;7.23;;;16.70;90.00;;;;;;5056459;28;20209;-71
2021/10/06 08:54:17;;;;;;;9.70;5.60;;;16.70;90.10;;;;;;5054675;28;20209;-72
2021/10/06 08:56:47;;;;;;;9.90;5.63;;;16.50;90.10;;;;;;5053633;28;20245;-70
2021/10/06 08:59:14;;;;;;;12.37;5.67;;;16.50;90.00;;;;;;5061518;28;20206;-71
2021/10/06 09:01:44;;;;;;;7.67;5.40;;;16.50;90.20;;;;;;5051611;28;20741;-71
2021/10/06 09:04:11;;;;;;;8.43;5.43;;;16.50;89.70;;;;;;5052502;28;20274;-70
2021/10/06 09:06:40;;;;;;;7.63;5.70;;;16.70;90.80;;;;;;5041198;28;20213;-72
2021/10/06 09:09:20;;;;;;;8.70;4.90;;;17.30;91.60;;;;;;5040816;28;20206;-70
2021/10/06 09:11:49;;;;;;;9.50;4.83;;;18.40;86.70;;;;;;5044389;28;20648;-70
2021/10/06 09:14:17;;;;;;;7.53;4.95;;;19.40;89.10;;;;;;5046922;28;20206;-69
2021/10/06 09:16:45;;;;;;;6.43;5.18;;;20.90;82.90;;;;;;5037276;28;20249;-70
2021/10/06 09:19:12;;;;;;;9.70;5.28;;;22.30;73.10;;;;;;5055387;28;20859;-70
2021/10/06 09:21:54;;;;;;;7.28;4.95;;;22.40;68.30;;;;;;5045794;28;20201;-70
2021/10/06 09:24:23;;;;;;;16.90;5.35;;;22.50;67.60;;;;;;5044463;28;20216;-70
2021/10/06 09:27:03;;;;;;;9.52;5.00;;;22.40;66.90;;;;;;5051595;28;20451;-70
2021/10/06 09:29:30;;;;;;;8.23;4.55;;;23.40;65.00;;;;;;5032811;28;20202;-70
2021/10/06 09:31:57;;;;;;;9.00;5.18;;;24.20;62.10;;;;;;5040105;28;20207;-70
2021/10/06 09:34:24;;;;;;;7.65;4.78;;;24.50;58.40;;;;;;5042678;28;20248;-69
2021/10/06 09:36:51;;;;;;;8.02;5.30;;;24.60;57.60;;;;;;5052730;28;20713;-70
2021/10/06 09:39:18;;;;;;;8.52;5.63;;;24.60;57.60;;;;;;5055227;28;20208;-73
2021/10/06 09:41:49;;;;;;;10.00;4.82;;;24.70;59.10;;;;;;5053470;28;20641;-73
2021/10/06 09:44:19;;;;;;;10.30;4.70;;;25.80;56.50;;;;;;5055055;28;20209;-70
2021/10/06 09:46:51;;;;;;;6.63;5.05;;;27.50;53.10;;;;;;5053161;28;20206;-71
2021/10/06 09:49:29;;;;;;;9.85;4.80;;;28.70;50.00;;;;;;5052468;28;20221;-71
2021/10/06 09:52:13;;;;;;;6.72;4.55;;;28.60;48.10;;;;;;5051362;28;20204;-73
2021/10/06 09:54:40;;;;;;;11.15;5.10;;;27.80;48.20;;;;;;5051635;28;20289;-73
2021/10/06 09:57:08;;;;;;;5.70;4.07;;;26.60;48.80;;;;;;5050673;28;20340;-72
2021/10/06 09:59:36;;;;;;;7.38;4.38;;;26.00;49.70;;;;;;5054099;28;20209;-72
2021/10/06 10:02:03;;;;;;;8.43;4.40;;;25.00;51.50;;;;;;5046205;28;20224;-74
2021/10/06 10:04:30;;;;;;;5.57;4.53;;;24.10;52.30;;;;;;5053446;28;20210;-70
2021/10/06 10:06:57;;;;;;;5.78;4.50;;;23.50;56.10;;;;;;5042985;28;20264;-72
2021/10/06 10:09:23;;;;;;;7.82;4.55;;;24.50;57.90;;;;;;5052305;28;20209;-72
2021/10/06 10:11:51;;;;;;;9.70;5.60;;;26.70;51.60;;;;;;5051831;28;20237;-72
2021/10/06 10:14:20;;;;;;;11.50;7.30;;;28.20;48.60;;;;;;5052436;28;20209;-70
2021/10/06 10:16:47;;;;;;;8.57;4.25;;;29.10;48.30;;;;;;5043506;28;20224;-71
2021/10/06 10:19:14;;;;;;;6.45;4.80;;;30.10;44.50;;;;;;5054601;28;20304;-70
2021/10/06 10:21:43;;;;;;;11.02;4.80;;;29.80;43.20;;;;;;5053359;28;20214;-70
2021/10/06 10:24:12;;;;;;;15.70;5.00;;;28.70;44.00;;;;;;5052566;28;20202;-71
2021/10/06 10:26:58;;;;;;;7.30;4.35;;;27.30;45.50;;;;;;5052567;28;20220;-72
2021/10/06 10:29:44;;;;;;;9.00;4.10;;;25.90;47.90;;;;;;5045175;28;20202;-71
2021/10/06 10:32:13;;;;;;;8.57;4.90;;;25.10;50.10;;;;;;5052192;28;20244;-72
2021/10/06 10:35:04;;;;;;;10.48;5.25;;;24.70;50.20;;;;;;5053902;28;20540;-72
2021/10/06 10:38:19;;;;;;;7.90;5.53;;;24.50;51.30;;;;;;5044848;28;20233;-72
2021/10/06 10:40:58;;;;;;;12.27;5.30;;;24.40;51.50;;;;;;5053747;28;20285;-71
2021/10/06 10:43:27;;;;;;;14.45;5.13;;;25.80;52.50;;;;;;5054892;28;20263;-73
2021/10/06 10:46:13;;;;;;;7.70;4.60;;;28.50;48.90;;;;;;5047277;28;20571;-72
2021/10/06 10:49:01;;;;;;;8.82;5.22;;;31.40;43.70;;;;;;5060991;28;20198;-72
2021/10/06 10:51:49;;;;;;;10.13;4.60;;;33.20;39.20;;;;;;5062411;28;20217;-72
2021/10/06 10:54:33;;;;;;;8.93;5.18;;;32.40;39.10;;;;;;5053011;28;20578;-72
2021/10/06 10:57:06;;;;;;;11.15;5.72;;;32.20;40.80;;;;;;5054407;28;20678;-75
2021/10/06 10:59:42;;;;;;;8.73;4.90;;;32.60;38.70;;;;;;5060864;28;20273;-74
2021/10/06 11:02:18;;;;;;;8.88;4.97;;;31.80;39.00;;;;;;5052726;28;20570;-74
2021/10/06 11:04:47;;;;;;;7.88;5.50;;;30.80;39.50;;;;;;5061161;28;20577;-73
2021/10/06 11:07:17;;;;;;;12.63;5.13;;;30.30;40.80;;;;;;5061814;28;20296;-73
2021/10/06 11:09:53;;;;;;;9.82;5.85;;;29.80;40.30;;;;;;5070835;28;20292;-75
2021/10/06 11:12:42;;;;;;;10.18;5.30;;;28.70;41.60;;;;;;5067951;28;20296;-74
2021/10/06 11:15:33;;;;;;;9.48;5.90;;;27.00;43.50;;;;;;5045683;28;20733;-74
2021/10/06 11:18:17;;;;;;;7.70;5.60;;;25.40;46.60;;;;;;5055636;28;20224;-73
2021/10/06 11:20:47;;;;;;;7.85;6.22;;;24.00;48.20;;;;;;5058004;28;20201;-74
2021/10/06 11:23:52;;;;;;;11.00;5.97;;;23.00;49.90;;;;;;5055546;28;20232;-75
2021/10/06 11:26:37;;;;;;;9.45;5.93;;;22.20;51.50;;;;;;5051861;28;20205;-73
2021/10/06 11:29:07;;;;;;;8.63;5.80;;;21.60;52.90;;;;;;5055440;28;20206;-74
2021/10/06 11:31:36;;;;;;;14.52;5.53;;;21.40;54.00;;;;;;5055889;28;20205;-74
2021/10/06 11:34:07;;;;;;;9.13;5.43;;;21.50;56.00;;;;;;5046763;28;20240;-74
2021/10/06 11:36:35;;;;;;;10.65;5.47;;;22.50;54.50;;;;;;5056982;28;20256;-74
2021/10/06 11:39:10;;;;;;;6.82;5.38;;;23.80;52.60;;;;;;5048514;28;20746;-73
2021/10/06 11:41:42;;;;;;;9.57;5.88;;;24.50;51.20;;;;;;5064396;28;20734;-74
2021/10/06 11:44:09;;;;;;;12.73;5.47;;;25.80;50.40;;;;;;5051595;28;20465;-72
2021/10/06 11:46:36;;;;;;;9.90;5.45;;;27.10;46.90;;;;;;5072719;28;20311;-73
2021/10/06 11:49:07;;;;;;;8.15;5.50;;;27.50;45.90;;;;;;5060078;28;20642;-72
2021/10/06 11:51:41;;;;;;;10.57;5.65;;;27.20;45.30;;;;;;5063266;28;20300;-73
2021/10/06 11:54:08;;;;;;;11.68;6.13;;;26.50;46.40;;;;;;5060045;28;20663;-73
2021/10/06 11:56:35;;;;;;;9.82;5.00;;;26.20;47.50;;;;;;5055463;28;20206;-73
2021/10/06 11:59:10;;;;;;;10.80;5.13;;;26.20;47.60;;;;;;5056028;28;20326;-74
2021/10/06 12:01:39;;;;;;;10.00;5.07;;;26.20;47.60;;;;;;5051446;28;20206;-74
2021/10/06 12:04:12;;;;;;;9.40;5.95;;;26.30;47.40;;;;;;5049094;28;20288;-74
2021/10/06 12:06:42;;;;;;;8.02;6.05;;;26.00;47.00;;;;;;5054360;28;20244;-74
2021/10/06 12:09:12;;;;;;;9.68;5.70;;;25.40;48.00;;;;;;5055839;28;20556;-74
2021/10/06 12:11:41;;;;;;;8.30;5.90;;;24.70;48.70;;;;;;5055056;28;20316;-74
2021/10/06 12:14:19;;;;;;;11.48;6.45;;;24.00;49.30;;;;;;5055336;28;20729;-73
2021/10/06 12:16:49;;;;;;;10.43;5.88;;;23.40;50.70;;;;;;5050098;28;20561;-74
2021/10/06 12:19:23;;;;;;;9.25;6.47;;;23.00;51.80;;;;;;5066634;28;20205;-74
2021/10/06 12:21:51;;;;;;;9.57;6.28;;;22.90;52.80;;;;;;5054756;28;20197;-74
2021/10/06 12:24:20;;;;;;;7.07;5.50;;;23.20;52.50;;;;;;5055459;28;20217;-74
2021/10/06 12:26:47;;;;;;;8.57;6.05;;;23.50;52.10;;;;;;5059492;28;20293;-74
2021/10/06 12:29:16;;;;;;;10.40;5.30;;;24.00;52.40;;;;;;5050504;28;20206;-73
2021/10/06 12:31:43;;;;;;;13.73;5.80;;;24.80;51.50;;;;;;5057194;28;20229;-72
2021/10/06 12:34:12;;;;;;;12.57;6.55;;;25.40;49.70;;;;;;5057105;28;20218;-71
2021/10/06 12:36:47;;;;;;;9.70;5.65;;;25.30;49.40;;;;;;5054751;28;20276;-74
2021/10/06 12:39:17;;;;;;;13.32;6.13;;;25.00;49.70;;;;;;5057991;28;20244;-72
2021/10/06 12:41:51;;;;;;;7.75;5.40;;;25.00;49.80;;;;;;5059385;28;20198;-73
2021/10/06 12:44:25;;;;;;;10.93;6.50;;;24.80;49.80;;;;;;5062127;28;20261;-71
2021/10/06 12:46:54;;;;;;;11.75;5.88;;;24.30;50.00;;;;;;5051930;28;20617;-71
2021/10/06 12:49:22;;;;;;;7.35;5.60;;;23.70;50.80;;;;;;5060641;28;20213;-73
2021/10/06 12:51:59;;;;;;;11.88;6.00;;;23.20;52.10;;;;;;5065130;28;20264;-72